Time;durP1;ratioP1;P1;durP2;ratioP2;P2;SDS_P1;SDS_P2;PMS_P1;PMS_P2;Temp;Humidity;BMP_temperature;BMP_pressure;BME280_temperature;BME280_humidity;BME280_pressure;Samples;Min_cycle;Max_cycle;Signal;HPM_P1;HPM_P2
2023/05/07 00:02:14;;;;;;;11.10;6.88;;;;;;;25.76;43.77;101680.50;5046739;28;20071;-71
2023/05/07 00:04:39;;;;;;;13.60;7.65;;;;;;;25.86;43.22;101676.28;5030404;28;20032;-71
2023/05/07 00:07:05;;;;;;;12.85;7.13;;;;;;;25.76;43.72;101684.97;5029148;28;20036;-71
2023/05/07 00:09:30;;;;;;;12.07;7.70;;;;;;;25.64;44.32;101675.91;5030875;28;20025;-71
2023/05/07 00:11:56;;;;;;;10.77;7.20;;;;;;;25.84;43.81;101678.22;5029059;28;20048;-71
2023/05/07 00:14:21;;;;;;;11.98;7.72;;;;;;;25.29;44.43;101684.16;5050877;28;20021;-72
2023/05/07 00:16:47;;;;;;;11.93;7.07;;;;;;;26.12;42.87;101686.38;5030834;28;20025;-71
2023/05/07 00:19:12;;;;;;;12.25;7.22;;;;;;;25.50;44.97;101679.38;5046671;28;20065;-71
2023/05/07 00:21:37;;;;;;;9.95;6.53;;;;;;;25.65;44.30;101682.94;5049736;28;20037;-71
2023/05/07 00:24:06;;;;;;;12.05;7.10;;;;;;;25.84;43.88;101683.56;5034485;28;20033;-71
2023/05/07 00:26:31;;;;;;;12.55;6.95;;;;;;;25.35;44.43;101675.81;5033917;28;20029;-71
2023/05/07 00:28:56;;;;;;;11.80;6.95;;;;;;;25.55;44.79;101678.19;5032385;28;20404;-71
2023/05/07 00:31:22;;;;;;;11.77;7.15;;;;;;;25.51;45.05;101668.59;5032740;28;20106;-70
2023/05/07 00:33:47;;;;;;;12.50;6.90;;;;;;;25.74;43.86;101672.53;5023043;28;20056;-71
2023/05/07 00:36:12;;;;;;;12.73;7.22;;;;;;;25.87;42.95;101667.31;5033468;28;20393;-71
2023/05/07 00:38:38;;;;;;;13.75;8.15;;;;;;;26.20;42.76;101662.63;5051330;28;20141;-71
2023/05/07 00:41:05;;;;;;;13.88;8.63;;;;;;;26.03;43.70;101671.75;5051969;28;20040;-71
2023/05/07 00:43:30;;;;;;;12.15;7.20;;;;;;;25.95;43.71;101674.00;5032731;28;20564;-71
2023/05/07 00:45:56;;;;;;;13.48;7.72;;;;;;;26.30;42.61;101668.28;5050790;28;20112;-71
2023/05/07 00:48:21;;;;;;;14.68;7.95;;;;;;;26.07;43.60;101665.25;5049994;28;20451;-71
2023/05/07 00:50:47;;;;;;;14.38;7.50;;;;;;;25.85;44.04;101666.53;5048205;28;20043;-71
2023/05/07 00:53:13;;;;;;;14.60;8.27;;;;;;;26.31;42.30;101664.63;5051674;28;20480;-71
2023/05/07 00:55:39;;;;;;;13.25;7.50;;;;;;;26.46;42.67;101663.69;5050261;28;21249;-71
2023/05/07 00:58:05;;;;;;;15.10;8.13;;;;;;;26.58;42.59;101667.38;5048932;28;20070;-71
2023/05/07 01:00:31;;;;;;;13.15;7.43;;;;;;;26.15;42.68;101668.28;5026297;28;20033;-71
2023/05/07 01:02:57;;;;;;;13.48;7.90;;;;;;;26.05;43.32;101676.06;5034250;28;20033;-71
2023/05/07 01:05:24;;;;;;;14.07;8.30;;;;;;;26.01;43.77;101668.28;5032143;28;20028;-71
2023/05/07 01:07:51;;;;;;;13.85;8.23;;;;;;;25.74;43.57;101660.97;5049748;28;20033;-71
2023/05/07 01:10:17;;;;;;;15.95;9.07;;;;;;;26.20;43.31;101658.16;5032486;28;20380;-70
2023/05/07 01:12:45;;;;;;;13.68;7.80;;;;;;;26.26;43.27;101656.06;5034171;28;20055;-71
2023/05/07 01:15:11;;;;;;;12.75;7.78;;;;;;;26.20;43.60;101654.59;5032629;28;20055;-70
2023/05/07 01:17:39;;;;;;;15.02;8.30;;;;;;;26.50;42.69;101654.47;5032246;28;20576;-71
2023/05/07 01:20:06;;;;;;;15.63;9.00;;;;;;;25.97;44.42;101650.69;5049364;28;20032;-72
2023/05/07 01:22:38;;;;;;;14.32;8.32;;;;;;;26.01;44.06;101652.22;5048399;28;20048;-71
2023/05/07 01:25:05;;;;;;;19.88;9.05;;;;;;;25.61;44.70;101652.84;5031322;28;20495;-71
2023/05/07 01:27:33;;;;;;;15.90;9.25;;;;;;;25.73;44.45;101659.25;5050807;28;20382;-70
2023/05/07 01:29:58;;;;;;;16.05;9.20;;;;;;;25.88;43.76;101658.34;5033773;28;20070;-71
2023/05/07 01:32:30;;;;;;;18.33;9.40;;;;;;;25.71;44.45;101650.47;5031816;28;20044;-71
2023/05/07 01:34:58;;;;;;;16.33;8.82;;;;;;;25.52;44.59;101651.56;5032858;28;20397;-71
2023/05/07 01:37:25;;;;;;;15.85;9.38;;;;;;;25.89;43.80;101654.69;5029845;28;20063;-71
2023/05/07 01:39:50;;;;;;;17.10;9.18;;;;;;;25.41;44.67;101648.69;5031588;28;20029;-71
2023/05/07 01:42:16;;;;;;;15.60;9.38;;;;;;;25.34;45.52;101648.19;5032146;28;20403;-71
2023/05/07 01:44:41;;;;;;;15.73;9.38;;;;;;;25.49;45.28;101650.91;5051553;28;20116;-71
2023/05/07 01:47:08;;;;;;;13.57;8.55;;;;;;;25.69;44.20;101642.53;5049135;28;20027;-71
2023/05/07 01:49:34;;;;;;;14.20;9.25;;;;;;;25.10;46.02;101639.78;5031117;28;20029;-71
2023/05/07 01:52:00;;;;;;;17.17;8.65;;;;;;;25.29;45.40;101644.03;5049757;28;20060;-70
2023/05/07 01:54:27;;;;;;;16.35;8.55;;;;;;;25.44;44.21;101643.16;5028632;28;20449;-71
2023/05/07 01:56:53;;;;;;;14.32;8.27;;;;;;;25.52;44.55;101640.88;5049555;28;20028;-71
2023/05/07 01:59:18;;;;;;;12.48;8.10;;;;;;;25.18;45.34;101642.88;5049550;28;20021;-71
2023/05/07 02:01:44;;;;;;;13.65;7.95;;;;;;;25.48;44.71;101644.69;5032799;28;20118;-71
2023/05/07 02:04:09;;;;;;;15.07;8.60;;;;;;;25.59;44.92;101643.19;5033357;28;20079;-71
2023/05/07 02:06:35;;;;;;;17.38;9.00;;;;;;;25.87;44.06;101645.00;5032551;28;20108;-71
2023/05/07 02:09:01;;;;;;;15.55;9.60;;;;;;;25.57;44.25;101644.13;5033695;28;20021;-71
2023/05/07 02:11:26;;;;;;;15.93;8.60;;;;;;;25.45;45.18;101642.19;5049056;28;20032;-71
2023/05/07 02:13:52;;;;;;;15.98;8.25;;;;;;;26.00;44.09;101629.91;5050860;28;20584;-70
2023/05/07 02:16:19;;;;;;;15.05;7.88;;;;;;;26.13;43.43;101630.03;5032421;28;20049;-71
2023/05/07 02:18:44;;;;;;;13.05;8.40;;;;;;;25.84;43.88;101640.72;5032779;28;20613;-71
2023/05/07 02:21:09;;;;;;;13.07;8.50;;;;;;;25.40;45.43;101642.50;5026926;28;20024;-71
2023/05/07 02:23:35;;;;;;;14.88;8.40;;;;;;;25.63;44.90;101642.03;5032842;28;20396;-71
2023/05/07 02:26:00;;;;;;;12.60;7.72;;;;;;;25.68;44.71;101650.66;5033418;28;20039;-71
2023/05/07 02:28:26;;;;;;;14.00;8.15;;;;;;;25.55;44.80;101646.06;5031593;28;20025;-71
2023/05/07 02:30:52;;;;;;;12.27;8.38;;;;;;;25.80;44.37;101643.69;5047409;28;20103;-71
2023/05/07 02:33:17;;;;;;;11.00;7.95;;;;;;;25.99;44.01;101654.09;5028235;28;20135;-70
2023/05/07 02:35:43;;;;;;;14.98;8.82;;;;;;;25.95;44.05;101642.72;5030613;28;20508;-71
2023/05/07 02:38:10;;;;;;;15.68;7.75;;;;;;;26.05;44.19;101643.91;5031300;28;20048;-71
2023/05/07 02:40:39;;;;;;;13.82;8.20;;;;;;;26.40;42.96;101653.34;5033222;28;20370;-71
2023/05/07 02:43:05;;;;;;;14.48;8.40;;;;;;;25.88;44.08;101652.97;5028208;28;20040;-70
2023/05/07 02:45:30;;;;;;;10.90;7.18;;;;;;;26.03;44.02;101655.66;5050731;28;20104;-70
2023/05/07 02:47:56;;;;;;;13.38;7.70;;;;;;;25.87;43.48;101651.25;5028977;28;20048;-71
2023/05/07 02:50:21;;;;;;;10.48;6.60;;;;;;;26.07;43.29;101643.81;5026894;28;20031;-71
2023/05/07 02:52:47;;;;;;;12.15;7.50;;;;;;;26.05;44.08;101649.25;5028268;28;20507;-71
2023/05/07 02:55:12;;;;;;;11.77;7.40;;;;;;;25.61;44.64;101651.97;5030740;28;20048;-71
2023/05/07 02:57:38;;;;;;;9.38;6.68;;;;;;;25.96;44.02;101643.59;5031427;28;20075;-71
2023/05/07 03:00:20;;;;;;;9.75;6.55;;;;;;;26.23;43.10;101641.03;5019543;28;20029;-71
2023/05/07 03:02:45;;;;;;;12.38;6.93;;;;;;;25.95;43.81;101645.41;5044278;28;20040;-71
2023/05/07 03:05:12;;;;;;;10.15;6.85;;;;;;;25.38;44.99;101648.88;5030820;28;20029;-71
2023/05/07 03:07:37;;;;;;;9.88;6.43;;;;;;;25.77;44.02;101646.56;5049274;28;20107;-71
2023/05/07 03:10:06;;;;;;;8.43;6.00;;;;;;;25.42;44.74;101650.41;5031507;28;20147;-71
2023/05/07 03:12:31;;;;;;;10.93;7.13;;;;;;;25.83;44.00;101647.03;5029893;28;20049;-71
2023/05/07 03:14:57;;;;;;;9.23;6.43;;;;;;;25.35;44.84;101649.06;5031120;28;20035;-71
2023/05/07 03:17:22;;;;;;;8.68;6.70;;;;;;;25.88;44.23;101652.97;5030069;28;20064;-71
2023/05/07 03:19:48;;;;;;;7.90;5.78;;;;;;;25.87;43.80;101650.38;5031734;28;20166;-71
2023/05/07 03:22:14;;;;;;;7.75;5.80;;;;;;;26.22;43.41;101645.50;5027925;28;20695;-71
2023/05/07 03:24:39;;;;;;;10.38;6.20;;;;;;;26.49;42.85;101642.03;5048712;28;20071;-71
2023/05/07 03:27:05;;;;;;;7.40;5.60;;;;;;;26.78;42.33;101641.09;5047555;28;20388;-71
2023/05/07 03:29:30;;;;;;;8.45;6.43;;;;;;;26.61;42.45;101640.34;5028384;28;20033;-71
2023/05/07 03:31:55;;;;;;;8.10;6.18;;;;;;;25.69;44.31;101649.69;5019663;28;20029;-71
2023/05/07 03:34:22;;;;;;;9.15;5.60;;;;;;;25.81;44.41;101643.56;5030529;28;20039;-71
2023/05/07 03:36:48;;;;;;;9.85;5.97;;;;;;;25.80;43.95;101641.88;5032219;28;20032;-71
2023/05/07 03:39:14;;;;;;;10.07;6.10;;;;;;;26.39;43.21;101635.53;5029416;28;20076;-71
2023/05/07 03:41:39;;;;;;;9.27;5.90;;;;;;;26.28;42.50;101638.91;5029215;28;20036;-71
2023/05/07 03:44:05;;;;;;;7.97;5.82;;;;;;;26.42;43.00;101635.34;5048188;28;20048;-71
2023/05/07 03:46:32;;;;;;;10.43;6.28;;;;;;;26.21;43.30;101638.44;5031449;28;20496;-71
2023/05/07 03:48:58;;;;;;;9.10;5.60;;;;;;;25.98;43.36;101647.03;5030350;28;20028;-71
2023/05/07 03:51:23;;;;;;;8.90;5.68;;;;;;;25.85;44.30;101647.78;5029813;28;20552;-71
2023/05/07 03:53:48;;;;;;;6.93;5.15;;;;;;;26.10;43.77;101654.31;5027077;28;20392;-71
2023/05/07 03:56:14;;;;;;;9.00;6.40;;;;;;;26.20;43.06;101647.44;5045040;28;20530;-71
2023/05/07 03:58:39;;;;;;;9.68;6.43;;;;;;;26.27;43.25;101647.91;5030484;28;20029;-71
2023/05/07 04:01:05;;;;;;;7.93;6.05;;;;;;;26.39;42.69;101654.28;5029619;28;20439;-71
2023/05/07 04:03:30;;;;;;;6.85;5.32;;;;;;;26.11;43.37;101658.72;5048088;28;20041;-72
2023/05/07 04:05:56;;;;;;;8.85;5.82;;;;;;;26.17;43.13;101658.34;5045540;28;20516;-70
2023/05/07 04:08:21;;;;;;;7.47;5.75;;;;;;;26.40;42.64;101662.22;5029611;28;20055;-71
2023/05/07 04:10:46;;;;;;;7.75;5.82;;;;;;;26.33;42.86;101658.22;5050049;28;20071;-70
2023/05/07 04:13:12;;;;;;;7.55;5.93;;;;;;;26.51;42.73;101661.53;5029749;28;20060;-71
2023/05/07 04:15:37;;;;;;;7.38;5.70;;;;;;;26.14;42.92;101658.53;5048894;28;20091;-70
2023/05/07 04:18:06;;;;;;;7.70;5.32;;;;;;;25.99;43.76;101664.81;5027843;28;20036;-71
2023/05/07 04:20:34;;;;;;;10.88;6.57;;;;;;;25.96;44.00;101665.03;5031758;28;20117;-71
2023/05/07 04:23:00;;;;;;;9.25;6.15;;;;;;;25.96;44.01;101665.03;5027917;28;20033;-71
2023/05/07 04:25:26;;;;;;;6.70;5.47;;;;;;;25.95;43.75;101664.13;5028256;28;20044;-71
2023/05/07 04:27:51;;;;;;;6.82;5.47;;;;;;;26.15;43.18;101660.25;5029511;28;20029;-70
2023/05/07 04:30:17;;;;;;;10.20;5.60;;;;;;;26.06;43.39;101656.34;5031290;28;20083;-70
2023/05/07 04:32:44;;;;;;;9.93;6.13;;;;;;;26.02;43.35;101664.66;5030654;28;20102;-70
2023/05/07 04:35:09;;;;;;;9.65;6.45;;;;;;;26.05;43.46;101659.97;5046450;28;20440;-70
2023/05/07 04:37:35;;;;;;;13.38;7.53;;;;;;;26.14;43.31;101661.22;5047275;28;20116;-70
2023/05/07 04:40:01;;;;;;;10.68;6.78;;;;;;;26.24;42.81;101653.44;5030299;28;20047;-70
2023/05/07 04:42:27;;;;;;;9.20;6.30;;;;;;;25.74;43.84;101655.63;5048168;28;20112;-70
2023/05/07 04:44:53;;;;;;;8.32;5.90;;;;;;;26.11;43.46;101648.00;5029840;28;20035;-70
2023/05/07 04:47:19;;;;;;;8.70;6.47;;;;;;;25.98;43.71;101652.38;5028499;28;20029;-69
2023/05/07 04:49:44;;;;;;;8.52;6.15;;;;;;;26.01;43.64;101654.88;5029225;28;20040;-70
2023/05/07 04:52:09;;;;;;;10.82;6.55;;;;;;;26.15;43.28;101660.25;5030096;28;20070;-70
2023/05/07 04:54:35;;;;;;;9.35;6.70;;;;;;;25.94;43.21;101661.56;5019974;28;20033;-70
2023/05/07 04:57:00;;;;;;;9.15;6.53;;;;;;;26.06;43.20;101666.19;5028391;28;20033;-70
2023/05/07 04:59:26;;;;;;;9.60;7.00;;;;;;;25.54;44.30;101663.06;5029772;28;20040;-70
2023/05/07 05:01:51;;;;;;;9.43;6.15;;;;;;;25.78;44.01;101667.88;5032820;28;20101;-70
2023/05/07 05:04:16;;;;;;;9.07;6.50;;;;;;;26.36;42.45;101663.38;5050194;28;20144;-70
2023/05/07 05:06:42;;;;;;;9.95;6.05;;;;;;;25.96;43.92;101673.06;5029997;28;20199;-70
2023/05/07 05:09:07;;;;;;;9.52;6.63;;;;;;;26.42;43.02;101662.16;5027928;28;20028;-71
2023/05/07 05:11:32;;;;;;;9.43;6.38;;;;;;;26.26;42.75;101672.97;5047465;28;20028;-70
2023/05/07 05:14:00;;;;;;;9.20;6.65;;;;;;;26.35;42.95;101671.53;5050672;28;20048;-70
2023/05/07 05:16:25;;;;;;;11.35;7.07;;;;;;;26.51;42.79;101672.25;5047176;28;20129;-70
2023/05/07 05:18:54;;;;;;;9.07;6.22;;;;;;;26.51;42.91;101674.94;5033340;28;20041;-70
2023/05/07 05:21:20;;;;;;;9.15;6.25;;;;;;;26.52;42.96;101678.50;5032835;28;20067;-70
2023/05/07 05:23:46;;;;;;;13.15;6.18;;;;;;;26.52;42.45;101676.66;5031828;28;20102;-70
2023/05/07 05:26:11;;;;;;;10.32;6.97;;;;;;;26.36;42.26;101681.28;5031840;28;20477;-70
2023/05/07 05:28:36;;;;;;;9.20;6.75;;;;;;;26.48;42.89;101683.19;5031218;28;20029;-70
2023/05/07 05:31:02;;;;;;;9.98;6.32;;;;;;;25.12;45.30;101694.03;5032844;28;20412;-70
2023/05/07 05:33:27;;;;;;;9.85;6.03;;;;;;;25.74;44.63;101696.63;5032077;28;20076;-70
2023/05/07 05:35:54;;;;;;;7.68;5.88;;;;;;;25.57;44.97;101702.16;5031227;28;20465;-70
2023/05/07 05:38:20;;;;;;;9.43;6.80;;;;;;;26.17;43.90;101701.22;5030752;28;20055;-70
2023/05/07 05:40:46;;;;;;;10.40;6.50;;;;;;;26.29;43.36;101701.41;5051083;28;20116;-70
2023/05/07 05:43:11;;;;;;;9.60;6.70;;;;;;;26.17;43.78;101713.75;5029158;28;20125;-69
2023/05/07 05:45:37;;;;;;;9.30;6.78;;;;;;;26.18;43.51;101708.28;5033562;28;20469;-70
2023/05/07 05:48:02;;;;;;;11.93;7.00;;;;;;;26.28;43.49;101716.59;5033258;28;20025;-70
2023/05/07 05:50:27;;;;;;;13.63;7.30;;;;;;;26.39;43.67;101711.44;5029853;28;20052;-69
2023/05/07 05:52:53;;;;;;;10.25;6.50;;;;;;;26.42;43.35;101711.25;5033163;28;20044;-70
2023/05/07 05:55:18;;;;;;;13.93;8.02;;;;;;;26.21;43.57;101718.81;5018118;28;20112;-70
2023/05/07 05:57:44;;;;;;;13.05;8.13;;;;;;;26.17;44.22;101711.94;5047036;28;20067;-70
2023/05/07 06:00:10;;;;;;;13.48;7.70;;;;;;;25.57;45.62;101724.44;5031502;28;20053;-69
2023/05/07 06:02:35;;;;;;;12.60;8.20;;;;;;;25.99;44.62;101713.88;5021117;28;20060;-70
2023/05/07 06:05:01;;;;;;;12.85;9.00;;;;;;;25.34;45.96;101724.94;5048323;28;20694;-70
2023/05/07 06:07:26;;;;;;;17.70;10.45;;;;;;;25.76;45.82;101715.31;5031539;28;20135;-69
2023/05/07 06:09:51;;;;;;;13.82;9.00;;;;;;;25.90;45.69;101720.66;5033009;28;20025;-70
2023/05/07 06:12:17;;;;;;;12.82;8.35;;;;;;;25.51;46.52;101730.16;5044202;28;20584;-70
2023/05/07 06:14:45;;;;;;;14.93;8.45;;;;;;;26.48;44.37;101720.72;5033088;28;20024;-70
2023/05/07 06:17:10;;;;;;;13.35;8.63;;;;;;;25.76;45.53;101734.06;5030622;28;20059;-70
2023/05/07 06:19:36;;;;;;;14.15;8.40;;;;;;;26.04;44.92;101733.25;5033385;28;20032;-70
2023/05/07 06:22:02;;;;;;;14.27;9.20;;;;;;;25.95;45.89;101727.56;5030145;28;20057;-70
2023/05/07 06:24:28;;;;;;;17.13;10.23;;;;;;;25.66;46.59;101735.53;5033298;28;20028;-71
2023/05/07 06:26:53;;;;;;;15.82;10.10;;;;;;;26.18;44.82;101731.53;5031594;28;20095;-71
2023/05/07 06:29:19;;;;;;;13.52;7.97;;;;;;;26.21;45.08;101740.25;5031004;28;20124;-71
2023/05/07 06:31:44;;;;;;;13.80;8.40;;;;;;;25.70;46.32;101737.06;5031143;28;20079;-71
2023/05/07 06:34:13;;;;;;;16.30;8.98;;;;;;;25.60;46.84;101743.94;5028484;28;20034;-72
2023/05/07 06:36:39;;;;;;;15.50;8.35;;;;;;;25.86;46.53;101740.56;5030680;28;20026;-72
2023/05/07 06:39:05;;;;;;;12.50;8.52;;;;;;;26.12;46.13;101734.59;5032299;28;20098;-71
2023/05/07 06:41:30;;;;;;;15.43;9.25;;;;;;;26.36;45.89;101734.88;5048447;28;20029;-71
2023/05/07 06:43:55;;;;;;;13.68;8.27;;;;;;;25.55;47.19;101731.69;5050435;28;20562;-72
2023/05/07 06:46:21;;;;;;;15.65;8.02;;;;;;;25.50;47.54;101727.53;5050492;28;20032;-72
2023/05/07 06:48:46;;;;;;;12.38;8.05;;;;;;;26.44;45.83;101729.91;5032092;28;20546;-72
2023/05/07 06:51:11;;;;;;;15.57;8.95;;;;;;;26.07;46.19;101722.34;5049800;28;20041;-71
2023/05/07 06:53:37;;;;;;;14.27;8.75;;;;;;;26.27;46.00;101727.41;5032108;28;20033;-71
2023/05/07 06:56:02;;;;;;;15.50;8.25;;;;;;;26.51;45.46;101723.19;5046531;28;20469;-71
2023/05/07 06:58:28;;;;;;;11.77;7.85;;;;;;;25.80;47.54;101724.00;5049453;28;20040;-71
2023/05/07 07:00:53;;;;;;;12.32;7.85;;;;;;;26.39;46.02;101722.16;5032904;28;20035;-70
2023/05/07 07:03:18;;;;;;;10.90;7.60;;;;;;;26.28;45.90;101724.63;5030772;28;20485;-70
2023/05/07 07:05:43;;;;;;;12.02;7.53;;;;;;;26.51;45.66;101717.81;5028568;28;20481;-70
2023/05/07 07:08:09;;;;;;;14.82;7.78;;;;;;;26.51;45.76;101728.53;5049051;28;20063;-70
2023/05/07 07:10:35;;;;;;;12.57;8.07;;;;;;;26.36;46.05;101727.69;5049096;28;20044;-70
2023/05/07 07:13:00;;;;;;;15.68;10.05;;;;;;;26.17;45.54;101725.34;5030976;28;20538;-70
2023/05/07 07:15:26;;;;;;;18.70;11.13;;;;;;;26.09;47.10;101730.31;5030897;28;20103;-70
2023/05/07 07:17:51;;;;;;;18.02;11.10;;;;;;;25.77;48.55;101727.72;5030721;28;20378;-70
2023/05/07 07:20:17;;;;;;;17.55;10.15;;;;;;;25.67;48.16;101723.88;5029395;28;20028;-70
2023/05/07 07:22:42;;;;;;;19.33;10.82;;;;;;;25.86;48.15;101721.81;5046252;28;20435;-70
2023/05/07 07:25:08;;;;;;;14.35;9.63;;;;;;;26.49;47.56;101722.44;5030010;28;20024;-69
2023/05/07 07:27:34;;;;;;;16.58;10.50;;;;;;;26.53;47.04;101723.97;5049056;28;20083;-70
2023/05/07 07:29:59;;;;;;;15.95;10.18;;;;;;;26.84;46.46;101727.38;5045136;28;20021;-70
2023/05/07 07:32:25;;;;;;;19.40;11.38;;;;;;;27.92;44.79;101725.53;5049647;28;20029;-70
2023/05/07 07:34:50;;;;;;;17.85;11.40;;;;;;;28.01;43.50;101723.22;5049369;28;20567;-70
2023/05/07 07:37:16;;;;;;;14.13;10.45;;;;;;;27.59;44.45;101724.22;5030210;28;20028;-70
2023/05/07 07:39:41;;;;;;;15.93;10.25;;;;;;;27.55;44.39;101717.34;5031157;28;20025;-70
2023/05/07 07:42:07;;;;;;;14.90;10.18;;;;;;;28.59;43.72;101711.00;5031616;28;20040;-70
2023/05/07 07:44:32;;;;;;;16.65;10.48;;;;;;;27.83;43.71;101725.31;5027930;28;20460;-70
2023/05/07 07:46:57;;;;;;;14.10;9.90;;;;;;;28.01;42.49;101723.22;5031049;28;20530;-70
2023/05/07 07:49:23;;;;;;;14.63;9.88;;;;;;;29.21;42.15;101721.72;5031579;28;20388;-70
2023/05/07 07:51:48;;;;;;;15.20;10.05;;;;;;;29.75;41.85;101733.81;5029721;28;20111;-70
2023/05/07 07:54:14;;;;;;;16.08;10.13;;;;;;;31.17;38.67;101727.91;5030248;28;20079;-70
2023/05/07 07:56:39;;;;;;;11.70;8.00;;;;;;;30.44;40.56;101736.50;5030915;28;20491;-70
2023/05/07 07:59:05;;;;;;;9.52;6.78;;;;;;;30.53;38.67;101734.91;5043376;28;20033;-70
2023/05/07 08:01:30;;;;;;;9.73;5.68;;;;;;;30.98;38.17;101730.41;5025889;28;20043;-70
2023/05/07 08:03:58;;;;;;;9.02;6.28;;;;;;;32.67;37.24;101733.88;5028004;28;20029;-70
2023/05/07 08:06:23;;;;;;;10.52;6.55;;;;;;;32.90;36.83;101734.53;5011525;28;20610;-69
2023/05/07 08:08:49;;;;;;;9.27;6.25;;;;;;;33.21;36.40;101739.84;5041952;28;20544;-69
2023/05/07 08:11:14;;;;;;;8.43;5.97;;;;;;;34.40;32.29;101738.63;5044880;28;20033;-70
2023/05/07 08:13:40;;;;;;;10.45;5.88;;;;;;;34.80;32.95;101740.09;5024873;28;20560;-70
2023/05/07 08:16:05;;;;;;;8.65;6.30;;;;;;;34.24;33.55;101740.13;5039471;28;20041;-70
2023/05/07 08:18:31;;;;;;;7.03;5.60;;;;;;;35.07;32.43;101741.09;5019155;28;20099;-70
2023/05/07 08:20:56;;;;;;;9.18;6.38;;;;;;;35.42;32.35;101742.97;5030049;28;20031;-69
2023/05/07 08:23:22;;;;;;;10.95;6.13;;;;;;;36.49;30.31;101750.94;5020070;28;20048;-70
2023/05/07 08:25:49;;;;;;;9.82;6.10;;;;;;;34.47;32.43;101750.59;5024796;28;20021;-69
2023/05/07 08:28:14;;;;;;;10.60;5.70;;;;;;;34.51;31.41;101752.00;5042930;28;20396;-70
2023/05/07 08:30:40;;;;;;;9.82;6.53;;;;;;;32.51;33.35;101756.06;5027766;28;20035;-70
2023/05/07 08:33:06;;;;;;;8.30;6.38;;;;;;;31.83;34.78;101759.25;5029891;28;20576;-69
2023/05/07 08:35:31;;;;;;;7.50;6.00;;;;;;;30.79;36.15;101761.59;5031606;28;20056;-70
2023/05/07 08:37:57;;;;;;;6.75;5.15;;;;;;;31.84;35.74;101758.28;5031979;28;20115;-69
2023/05/07 08:40:25;;;;;;;7.72;5.88;;;;;;;30.53;37.24;101769.97;5049246;28;20051;-69
2023/05/07 08:42:53;;;;;;;7.20;5.68;;;;;;;31.57;37.31;101750.66;5034151;28;20447;-69
2023/05/07 08:45:20;;;;;;;8.18;5.85;;;;;;;32.33;35.19;101763.09;5051264;28;20040;-69
2023/05/07 08:47:58;;;;;;;6.35;5.10;;;;;;;33.90;33.54;101759.63;5051852;28;20060;-69
2023/05/07 08:50:24;;;;;;;7.18;4.93;;;;;;;33.56;32.18;101754.66;5029690;28;20037;-69
2023/05/07 08:52:49;;;;;;;5.53;4.20;;;;;;;33.88;30.75;101761.66;5033569;28;20036;-69
2023/05/07 08:55:15;;;;;;;5.63;3.80;;;;;;;33.74;32.11;101759.34;5049600;28;20090;-69
2023/05/07 08:57:40;;;;;;;6.43;4.80;;;;;;;34.12;32.02;101774.69;5033380;28;20021;-69
2023/05/07 09:00:07;;;;;;;8.95;4.65;;;;;;;34.45;30.97;101763.47;5049194;28;20037;-69
2023/05/07 09:02:33;;;;;;;5.63;4.10;;;;;;;33.08;31.86;101764.47;5033813;28;20032;-69
2023/05/07 09:04:58;;;;;;;6.95;4.35;;;;;;;33.83;30.81;101763.94;5033262;28;20029;-69
2023/05/07 09:07:25;;;;;;;7.25;4.60;;;;;;;33.47;32.13;101763.69;5031556;28;20025;-70
2023/05/07 09:09:51;;;;;;;8.45;4.93;;;;;;;33.78;32.22;101771.66;5032656;28;20021;-69
2023/05/07 09:12:18;;;;;;;8.88;5.18;;;;;;;33.39;31.89;101777.94;5032906;28;20577;-70
2023/05/07 09:14:44;;;;;;;8.00;5.03;;;;;;;31.64;34.38;101773.50;5033572;28;20035;-69
2023/05/07 09:17:09;;;;;;;7.32;5.47;;;;;;;32.75;32.53;101768.41;5032994;28;20025;-69
2023/05/07 09:19:35;;;;;;;6.90;4.78;;;;;;;31.00;35.57;101769.78;5032345;28;20485;-69
2023/05/07 09:22:07;;;;;;;7.50;5.32;;;;;;;31.56;35.23;101768.72;5029287;28;20032;-70
2023/05/07 09:24:37;;;;;;;8.13;5.45;;;;;;;32.59;33.63;101769.78;5032623;28;20047;-69
2023/05/07 09:27:03;;;;;;;7.25;4.97;;;;;;;33.45;32.17;101765.66;5033322;28;20041;-69
2023/05/07 09:29:34;;;;;;;7.45;5.72;;;;;;;33.34;32.67;101765.81;5030554;28;20039;-69
2023/05/07 09:32:01;;;;;;;7.70;4.88;;;;;;;32.35;33.16;101777.38;5031457;28;20480;-69
2023/05/07 09:34:26;;;;;;;7.00;4.63;;;;;;;32.03;33.62;101779.16;5033326;28;20057;-67
2023/05/07 09:36:51;;;;;;;6.50;4.60;;;;;;;32.36;33.65;101773.69;5032584;28;20025;-69
2023/05/07 09:39:17;;;;;;;7.20;4.55;;;;;;;32.73;33.31;101773.13;5032280;28;20067;-69
2023/05/07 09:41:46;;;;;;;6.15;4.38;;;;;;;32.08;33.76;101776.94;5032228;28;20033;-69
2023/05/07 09:44:14;;;;;;;7.43;4.20;;;;;;;31.43;34.01;101781.56;5030682;28;20027;-69
2023/05/07 09:46:42;;;;;;;8.15;4.43;;;;;;;32.08;34.59;101781.47;5034136;28;20473;-69
2023/05/07 09:49:17;;;;;;;8.13;4.40;;;;;;;33.38;32.94;101780.78;5030704;28;20480;-69
2023/05/07 09:51:49;;;;;;;8.90;4.53;;;;;;;32.90;32.31;101780.56;5030045;28;20039;-69
2023/05/07 09:54:16;;;;;;;8.20;4.75;;;;;;;33.82;32.44;101773.06;5032856;28;20036;-70
2023/05/07 09:56:44;;;;;;;6.68;4.88;;;;;;;33.28;31.70;101781.63;5033320;28;20052;-69
2023/05/07 09:59:13;;;;;;;8.13;4.55;;;;;;;33.49;32.38;101770.63;5030792;28;20053;-69
2023/05/07 10:01:41;;;;;;;7.35;4.80;;;;;;;33.73;31.88;101771.19;5048562;28;20492;-69
2023/05/07 10:04:08;;;;;;;7.80;4.25;;;;;;;33.49;30.14;101786.91;5046493;28;20024;-69
2023/05/07 10:06:35;;;;;;;6.07;4.50;;;;;;;34.14;30.44;101783.56;5048831;28;20032;-69
2023/05/07 10:09:01;;;;;;;7.85;5.35;;;;;;;34.32;30.29;101791.78;5051019;28;20479;-69
2023/05/07 10:11:28;;;;;;;7.30;4.97;;;;;;;35.49;28.93;101784.81;5050969;28;20526;-70
2023/05/07 10:13:54;;;;;;;5.80;4.38;;;;;;;35.49;28.23;101783.97;5029344;28;20187;-69
2023/05/07 10:16:21;;;;;;;8.10;3.80;;;;;;;35.09;29.30;101782.53;5031042;28;20135;-69
2023/05/07 10:18:48;;;;;;;6.07;3.45;;;;;;;34.93;28.16;101783.22;5032511;28;20071;-70
2023/05/07 10:21:18;;;;;;;5.15;4.22;;;;;;;35.60;28.44;101785.56;5038699;28;20033;-69
2023/05/07 10:23:59;;;;;;;5.32;3.60;;;;;;;35.80;28.77;101780.78;5030440;28;20040;-69
2023/05/07 10:26:27;;;;;;;4.57;3.72;;;;;;;36.99;26.68;101777.31;5049497;28;20025;-70
2023/05/07 10:28:59;;;;;;;4.85;3.28;;;;;;;37.72;25.44;101777.53;5031440;28;20082;-70
2023/05/07 10:32:09;;;;;;;6.15;2.63;;;;;;;35.49;27.59;101779.38;5027140;28;20224;-70
2023/05/07 10:34:42;;;;;;;9.00;4.00;;;;;;;36.30;26.00;101788.25;5047893;28;20052;-70
2023/05/07 10:37:10;;;;;;;3.55;3.03;;;;;;;35.25;28.60;101782.69;5030401;28;20051;-70
2023/05/07 10:39:35;;;;;;;4.60;2.85;;;;;;;35.84;28.13;101779.47;5032558;28;20447;-70
2023/05/07 10:42:09;;;;;;;6.03;3.22;;;;;;;36.74;26.20;101794.56;5030274;28;20082;-70
2023/05/07 10:44:35;;;;;;;6.50;2.97;;;;;;;37.08;25.67;101796.41;5037572;28;20036;-70
2023/05/07 10:47:11;;;;;;;3.75;2.70;;;;;;;36.37;26.30;101803.97;5026183;28;20022;-70
2023/05/07 10:49:46;;;;;;;5.32;2.67;;;;;;;36.75;25.90;101791.69;5028804;28;20037;-71
2023/05/07 10:52:11;;;;;;;4.20;2.85;;;;;;;34.82;27.74;101801.44;5040212;28;20768;-70
2023/05/07 10:54:36;;;;;;;3.70;2.90;;;;;;;35.83;28.91;101794.97;5031041;28;20032;-70
2023/05/07 10:57:27;;;;;;;4.70;3.38;;;;;;;35.81;27.74;101799.66;5031888;28;20108;-71
2023/05/07 10:59:53;;;;;;;3.85;2.95;;;;;;;36.68;26.29;101796.09;5031099;28;20111;-70
2023/05/07 11:02:19;;;;;;;4.63;3.28;;;;;;;36.02;26.73;101794.91;5028804;28;20115;-71
2023/05/07 11:04:44;;;;;;;3.65;3.10;;;;;;;35.81;28.04;101804.25;5036954;28;20384;-71
2023/05/07 11:07:30;;;;;;;3.55;2.65;;;;;;;35.32;28.41;101799.25;5051589;28;20048;-70
2023/05/07 11:10:04;;;;;;;3.90;2.30;;;;;;;35.49;27.96;101794.84;5068729;28;20082;-71
2023/05/07 11:12:35;;;;;;;3.22;2.58;;;;;;;34.62;27.87;101803.38;5035397;28;20045;-71
2023/05/07 11:15:09;;;;;;;3.92;2.53;;;;;;;34.59;28.56;101797.38;5030666;28;20029;-70
2023/05/07 11:17:51;;;;;;;2.47;2.13;;;;;;;35.51;26.90;101792.78;5050125;28;20044;-71